Platja d'Aro, Spain

5:50 PM CET on February 06, 2016 (GMT +0100)
NEPP | | Change Station
CLOSE
Current Station
Personal Weather Station
Location: Girona,
Elevation: 59 ft
Nearby Weather Stations

Elev 59 ft 41.82 °N, 3.06 °E | Updated 18 days ago

Partly Cloudy
Partly Cloudy
51 °F
Feels Like 51 °F
N
12
Wind Variable Wind from SSW
Gusts 19 mph

Today
High -- | Low -- °F
--% Chance of Precip.
Yesterday
High -- | Low -- °F
Precip. -- in
Pressure 30.04 in
Visibility 6.2 miles
Clouds Few 3000 ft
Dew Point 47 °F
Humidity 86%
Rainfall in
Snow Depth Not available.
7:55 AM 6:08 PM
Waning Crescent, 5% visible
METAR LEGE 061630Z 19012KT 9999 FEW030 13/09 Q1017
Pressure 30.04 in
Visibility 6.2 miles
Clouds Few 3000 ft
Dew Point 47 °F
Humidity 86%
Rainfall in
Snow Depth Not available.
7:55 AM 6:08 PM
Waning Crescent, 5% visible
METAR LEGE 061630Z 19012KT 9999 FEW030 13/09 Q1017

10-Day Weather Forecast

Almanac

Astronomy

Feb. 06, 2016 Rise Set
Actual Time
Civil Twilight
Nautical Twilight
Astronomical Twilight
Moon
Length of Visible Light
Length of Day
Tomorrow will be .
, % of the Moon is Illuminated

Today's Extremes

Country Highs Country Lows

Community

WunderPhotos

Upload Photos

1,891,017 photos uploaded!

WunderBlog® & News

Nearby

Air Quality

  Air Quality AQ Index Pollutant
Not available.

Snow Depth

Station Depth Elevation

Earthquake Activity

City Distance Mag. Time & Date
Minimum magnitude displayed is 2.5.

Coastal Water Temperatures

Place Temperature

Stations

Nearby Weather Stations

Station Location Temp. Windchill Dew Point Humidity Wind Precip. Elev Updated Type